sensor_id;sensor_type;location;lat;lon;timestamp;temperature;humidity
70947;DHT22;58605;48.700;8.760;2023-03-07T00:01:32;2.90;82.30
70947;DHT22;58605;48.700;8.760;2023-03-07T00:03:59;2.90;82.30
70947;DHT22;58605;48.700;8.760;2023-03-07T00:06:25;2.90;82.30
70947;DHT22;58605;48.700;8.760;2023-03-07T00:08:55;2.80;82.40
70947;DHT22;58605;48.700;8.760;2023-03-07T00:11:21;2.80;82.70
70947;DHT22;58605;48.700;8.760;2023-03-07T00:13:47;2.90;83.20
70947;DHT22;58605;48.700;8.760;2023-03-07T00:16:14;2.80;82.40
70947;DHT22;58605;48.700;8.760;2023-03-07T00:18:41;2.90;82.40
70947;DHT22;58605;48.700;8.760;2023-03-07T00:21:10;2.90;82.20
70947;DHT22;58605;48.700;8.760;2023-03-07T00:23:38;2.80;82.30
70947;DHT22;58605;48.700;8.760;2023-03-07T00:26:07;2.90;82.40
70947;DHT22;58605;48.700;8.760;2023-03-07T00:28:34;2.90;82.20
70947;DHT22;58605;48.700;8.760;2023-03-07T00:31:00;2.80;82.30
70947;DHT22;58605;48.700;8.760;2023-03-07T00:33:27;2.90;82.30
70947;DHT22;58605;48.700;8.760;2023-03-07T00:35:54;2.90;81.80
70947;DHT22;58605;48.700;8.760;2023-03-07T00:38:21;3.00;82.00
70947;DHT22;58605;48.700;8.760;2023-03-07T00:40:54;3.00;81.80
70947;DHT22;58605;48.700;8.760;2023-03-07T00:43:21;3.00;81.80
70947;DHT22;58605;48.700;8.760;2023-03-07T00:45:47;2.90;81.80
70947;DHT22;58605;48.700;8.760;2023-03-07T00:48:13;2.90;81.80
70947;DHT22;58605;48.700;8.760;2023-03-07T00:50:39;2.70;81.90
70947;DHT22;58605;48.700;8.760;2023-03-07T00:53:05;2.60;82.00
70947;DHT22;58605;48.700;8.760;2023-03-07T00:55:31;2.50;81.80
70947;DHT22;58605;48.700;8.760;2023-03-07T00:57:57;2.50;82.40
70947;DHT22;58605;48.700;8.760;2023-03-07T01:00:25;2.50;82.40
70947;DHT22;58605;48.700;8.760;2023-03-07T01:02:51;2.50;82.40
70947;DHT22;58605;48.700;8.760;2023-03-07T01:05:17;2.50;82.50
70947;DHT22;58605;48.700;8.760;2023-03-07T01:07:43;2.50;82.60
70947;DHT22;58605;48.700;8.760;2023-03-07T01:10:09;2.40;82.60
70947;DHT22;58605;48.700;8.760;2023-03-07T01:12:35;2.40;82.70
70947;DHT22;58605;48.700;8.760;2023-03-07T01:15:01;2.30;82.50
70947;DHT22;58605;48.700;8.760;2023-03-07T01:17:32;2.30;82.70
70947;DHT22;58605;48.700;8.760;2023-03-07T01:19:58;2.30;82.70
70947;DHT22;58605;48.700;8.760;2023-03-07T01:22:24;2.30;82.80
70947;DHT22;58605;48.700;8.760;2023-03-07T01:24:50;2.30;82.60
70947;DHT22;58605;48.700;8.760;2023-03-07T01:27:16;2.30;82.50
70947;DHT22;58605;48.700;8.760;2023-03-07T01:29:42;2.30;82.70
70947;DHT22;58605;48.700;8.760;2023-03-07T01:32:08;2.40;82.60
70947;DHT22;58605;48.700;8.760;2023-03-07T01:34:36;2.40;82.30
70947;DHT22;58605;48.700;8.760;2023-03-07T01:37:10;2.50;82.60
70947;DHT22;58605;48.700;8.760;2023-03-07T01:39:36;2.40;82.30
70947;DHT22;58605;48.700;8.760;2023-03-07T01:42:04;2.50;82.30
70947;DHT22;58605;48.700;8.760;2023-03-07T01:44:30;2.50;82.50
70947;DHT22;58605;48.700;8.760;2023-03-07T01:46:57;2.50;82.40
70947;DHT22;58605;48.700;8.760;2023-03-07T01:49:26;2.50;82.60
70947;DHT22;58605;48.700;8.760;2023-03-07T01:51:58;2.50;82.40
70947;DHT22;58605;48.700;8.760;2023-03-07T01:54:27;2.60;82.30
70947;DHT22;58605;48.700;8.760;2023-03-07T01:56:55;2.50;82.00
70947;DHT22;58605;48.700;8.760;2023-03-07T01:59:28;2.50;82.20
70947;DHT22;58605;48.700;8.760;2023-03-07T02:02:00;2.50;82.70
70947;DHT22;58605;48.700;8.760;2023-03-07T02:04:32;2.40;82.70
70947;DHT22;58605;48.700;8.760;2023-03-07T02:07:01;2.40;82.90
70947;DHT22;58605;48.700;8.760;2023-03-07T02:09:29;2.40;82.70
70947;DHT22;58605;48.700;8.760;2023-03-07T02:12:03;2.40;82.80
70947;DHT22;58605;48.700;8.760;2023-03-07T02:14:29;2.40;83.00
70947;DHT22;58605;48.700;8.760;2023-03-07T02:16:55;2.30;83.00
70947;DHT22;58605;48.700;8.760;2023-03-07T02:19:45;2.30;83.20
70947;DHT22;58605;48.700;8.760;2023-03-07T02:22:16;2.30;83.70
70947;DHT22;58605;48.700;8.760;2023-03-07T02:24:46;2.30;83.80
70947;DHT22;58605;48.700;8.760;2023-03-07T02:27:14;2.30;83.90
70947;DHT22;58605;48.700;8.760;2023-03-07T02:29:47;2.30;83.80
70947;DHT22;58605;48.700;8.760;2023-03-07T02:32:13;2.20;84.50
70947;DHT22;58605;48.700;8.760;2023-03-07T02:34:40;2.20;83.80
70947;DHT22;58605;48.700;8.760;2023-03-07T02:37:08;2.30;83.80
70947;DHT22;58605;48.700;8.760;2023-03-07T02:39:36;2.30;83.50
70947;DHT22;58605;48.700;8.760;2023-03-07T02:42:07;2.30;83.50
70947;DHT22;58605;48.700;8.760;2023-03-07T02:44:35;2.40;83.30
70947;DHT22;58605;48.700;8.760;2023-03-07T02:47:01;2.50;83.00
70947;DHT22;58605;48.700;8.760;2023-03-07T02:49:34;2.50;82.80
70947;DHT22;58605;48.700;8.760;2023-03-07T02:52:01;2.50;82.80
70947;DHT22;58605;48.700;8.760;2023-03-07T02:54:27;2.50;82.80
70947;DHT22;58605;48.700;8.760;2023-03-07T02:56:53;2.60;82.60
70947;DHT22;58605;48.700;8.760;2023-03-07T02:59:19;2.70;82.60
70947;DHT22;58605;48.700;8.760;2023-03-07T03:01:47;2.60;82.50
70947;DHT22;58605;48.700;8.760;2023-03-07T03:04:13;2.60;82.70
70947;DHT22;58605;48.700;8.760;2023-03-07T03:06:39;2.60;82.60
70947;DHT22;58605;48.700;8.760;2023-03-07T03:09:05;2.60;82.80
70947;DHT22;58605;48.700;8.760;2023-03-07T03:11:31;2.50;82.90
70947;DHT22;58605;48.700;8.760;2023-03-07T03:13:57;2.60;83.00
70947;DHT22;58605;48.700;8.760;2023-03-07T03:16:23;2.60;82.90
70947;DHT22;58605;48.700;8.760;2023-03-07T03:18:50;2.70;82.90
70947;DHT22;58605;48.700;8.760;2023-03-07T03:21:16;2.60;83.00
70947;DHT22;58605;48.700;8.760;2023-03-07T03:23:42;2.80;82.90
70947;DHT22;58605;48.700;8.760;2023-03-07T03:26:10;2.90;82.60
70947;DHT22;58605;48.700;8.760;2023-03-07T03:28:36;2.90;82.30
70947;DHT22;58605;48.700;8.760;2023-03-07T03:31:04;3.10;82.10
70947;DHT22;58605;48.700;8.760;2023-03-07T03:33:31;2.90;81.60
70947;DHT22;58605;48.700;8.760;2023-03-07T03:36:03;2.90;82.10
70947;DHT22;58605;48.700;8.760;2023-03-07T03:38:30;2.80;82.40
70947;DHT22;58605;48.700;8.760;2023-03-07T03:40:58;2.70;82.60
70947;DHT22;58605;48.700;8.760;2023-03-07T03:43:24;2.80;82.70
70947;DHT22;58605;48.700;8.760;2023-03-07T03:45:53;2.60;83.00
70947;DHT22;58605;48.700;8.760;2023-03-07T03:48:19;2.50;83.20
70947;DHT22;58605;48.700;8.760;2023-03-07T03:50:45;2.60;83.10
70947;DHT22;58605;48.700;8.760;2023-03-07T03:53:13;2.60;83.30
70947;DHT22;58605;48.700;8.760;2023-03-07T03:55:39;2.50;83.60
70947;DHT22;58605;48.700;8.760;2023-03-07T03:58:05;2.50;83.60
70947;DHT22;58605;48.700;8.760;2023-03-07T04:00:31;2.40;83.80
70947;DHT22;58605;48.700;8.760;2023-03-07T04:02:57;2.40;83.90
70947;DHT22;58605;48.700;8.760;2023-03-07T04:05:23;2.40;84.10
70947;DHT22;58605;48.700;8.760;2023-03-07T04:07:49;2.50;84.10
70947;DHT22;58605;48.700;8.760;2023-03-07T04:10:17;2.50;83.70
70947;DHT22;58605;48.700;8.760;2023-03-07T04:12:44;2.50;83.70
70947;DHT22;58605;48.700;8.760;2023-03-07T04:15:11;2.50;83.40
70947;DHT22;58605;48.700;8.760;2023-03-07T04:17:37;2.60;83.50
70947;DHT22;58605;48.700;8.760;2023-03-07T04:20:04;2.60;83.30
70947;DHT22;58605;48.700;8.760;2023-03-07T04:22:31;2.60;83.30
70947;DHT22;58605;48.700;8.760;2023-03-07T04:24:56;2.70;83.10
70947;DHT22;58605;48.700;8.760;2023-03-07T04:27:24;2.80;82.80
70947;DHT22;58605;48.700;8.760;2023-03-07T04:29:50;2.70;82.60
70947;DHT22;58605;48.700;8.760;2023-03-07T04:32:16;2.80;82.70
70947;DHT22;58605;48.700;8.760;2023-03-07T04:34:42;3.00;82.20
70947;DHT22;58605;48.700;8.760;2023-03-07T04:37:08;3.10;81.80
70947;DHT22;58605;48.700;8.760;2023-03-07T04:39:34;3.10;81.70
70947;DHT22;58605;48.700;8.760;2023-03-07T04:42:00;3.40;81.20
70947;DHT22;58605;48.700;8.760;2023-03-07T04:44:28;3.60;80.10
70947;DHT22;58605;48.700;8.760;2023-03-07T04:46:54;3.60;79.40
70947;DHT22;58605;48.700;8.760;2023-03-07T04:49:20;3.70;79.70
70947;DHT22;58605;48.700;8.760;2023-03-07T04:51:46;3.60;79.50
70947;DHT22;58605;48.700;8.760;2023-03-07T04:54:12;3.30;79.90
70947;DHT22;58605;48.700;8.760;2023-03-07T04:56:38;3.20;80.30
70947;DHT22;58605;48.700;8.760;2023-03-07T04:59:04;3.20;80.60
70947;DHT22;58605;48.700;8.760;2023-03-07T05:01:31;3.20;80.60
70947;DHT22;58605;48.700;8.760;2023-03-07T05:03:57;3.00;80.60
70947;DHT22;58605;48.700;8.760;2023-03-07T05:06:23;3.00;80.90
70947;DHT22;58605;48.700;8.760;2023-03-07T05:08:49;3.00;80.80
70947;DHT22;58605;48.700;8.760;2023-03-07T05:11:15;2.90;81.10
70947;DHT22;58605;48.700;8.760;2023-03-07T05:13:41;2.90;81.20
70947;DHT22;58605;48.700;8.760;2023-03-07T05:16:07;2.90;81.50
70947;DHT22;58605;48.700;8.760;2023-03-07T05:18:35;2.90;81.40
70947;DHT22;58605;48.700;8.760;2023-03-07T05:21:01;3.10;81.30
70947;DHT22;58605;48.700;8.760;2023-03-07T05:23:27;3.00;80.90
70947;DHT22;58605;48.700;8.760;2023-03-07T05:25:53;3.00;81.00
70947;DHT22;58605;48.700;8.760;2023-03-07T05:28:19;2.90;80.80
70947;DHT22;58605;48.700;8.760;2023-03-07T05:30:45;2.80;81.10
70947;DHT22;58605;48.700;8.760;2023-03-07T05:33:12;2.80;81.40
70947;DHT22;58605;48.700;8.760;2023-03-07T05:35:39;2.70;81.40
70947;DHT22;58605;48.700;8.760;2023-03-07T05:38:06;2.70;81.50
70947;DHT22;58605;48.700;8.760;2023-03-07T05:40:32;2.70;81.70
70947;DHT22;58605;48.700;8.760;2023-03-07T05:42:58;2.60;81.50
70947;DHT22;58605;48.700;8.760;2023-03-07T05:45:24;2.60;81.60
70947;DHT22;58605;48.700;8.760;2023-03-07T05:47:51;2.70;81.60
70947;DHT22;58605;48.700;8.760;2023-03-07T05:50:17;2.60;81.70
70947;DHT22;58605;48.700;8.760;2023-03-07T05:52:46;2.50;81.90
70947;DHT22;58605;48.700;8.760;2023-03-07T05:55:13;2.50;82.10
70947;DHT22;58605;48.700;8.760;2023-03-07T05:57:39;2.50;82.10
70947;DHT22;58605;48.700;8.760;2023-03-07T06:00:05;2.60;82.20
70947;DHT22;58605;48.700;8.760;2023-03-07T06:02:33;2.60;82.00
70947;DHT22;58605;48.700;8.760;2023-03-07T06:04:59;2.50;82.10
70947;DHT22;58605;48.700;8.760;2023-03-07T06:07:24;2.50;82.30
70947;DHT22;58605;48.700;8.760;2023-03-07T06:09:53;2.40;82.10
70947;DHT22;58605;48.700;8.760;2023-03-07T06:12:19;2.50;82.30
70947;DHT22;58605;48.700;8.760;2023-03-07T06:14:45;2.50;82.30
70947;DHT22;58605;48.700;8.760;2023-03-07T06:17:11;2.50;82.30
70947;DHT22;58605;48.700;8.760;2023-03-07T06:19:37;2.50;82.40
70947;DHT22;58605;48.700;8.760;2023-03-07T06:22:03;2.40;82.50
70947;DHT22;58605;48.700;8.760;2023-03-07T06:24:29;2.40;82.60
70947;DHT22;58605;48.700;8.760;2023-03-07T06:26:56;2.40;82.60
70947;DHT22;58605;48.700;8.760;2023-03-07T06:29:22;2.30;82.60
70947;DHT22;58605;48.700;8.760;2023-03-07T06:31:48;2.40;82.60
70947;DHT22;58605;48.700;8.760;2023-03-07T06:34:16;2.40;82.70
70947;DHT22;58605;48.700;8.760;2023-03-07T06:36:42;2.30;82.80
70947;DHT22;58605;48.700;8.760;2023-03-07T06:39:08;2.40;83.00
70947;DHT22;58605;48.700;8.760;2023-03-07T06:41:34;2.40;82.90
70947;DHT22;58605;48.700;8.760;2023-03-07T06:44:01;2.40;82.90
70947;DHT22;58605;48.700;8.760;2023-03-07T06:46:27;2.40;82.90
70947;DHT22;58605;48.700;8.760;2023-03-07T06:48:53;2.40;82.90
70947;DHT22;58605;48.700;8.760;2023-03-07T06:51:20;2.40;82.90
70947;DHT22;58605;48.700;8.760;2023-03-07T06:53:46;2.40;83.20
70947;DHT22;58605;48.700;8.760;2023-03-07T06:56:12;2.40;83.40
70947;DHT22;58605;48.700;8.760;2023-03-07T06:58:38;2.40;83.30
70947;DHT22;58605;48.700;8.760;2023-03-07T07:01:06;2.50;83.60
70947;DHT22;58605;48.700;8.760;2023-03-07T07:03:32;2.50;83.40
70947;DHT22;58605;48.700;8.760;2023-03-07T07:05:58;2.40;83.40
70947;DHT22;58605;48.700;8.760;2023-03-07T07:08:24;2.40;83.70
70947;DHT22;58605;48.700;8.760;2023-03-07T07:10:50;2.40;83.40
70947;DHT22;58605;48.700;8.760;2023-03-07T07:13:15;2.50;83.50
70947;DHT22;58605;48.700;8.760;2023-03-07T07:15:42;2.50;83.40
70947;DHT22;58605;48.700;8.760;2023-03-07T07:18:11;2.50;83.30
70947;DHT22;58605;48.700;8.760;2023-03-07T07:20:38;2.60;83.50
70947;DHT22;58605;48.700;8.760;2023-03-07T07:23:04;2.60;83.30
70947;DHT22;58605;48.700;8.760;2023-03-07T07:25:30;2.80;83.20
70947;DHT22;58605;48.700;8.760;2023-03-07T07:27:56;2.90;82.70
70947;DHT22;58605;48.700;8.760;2023-03-07T07:30:22;2.90;82.50
70947;DHT22;58605;48.700;8.760;2023-03-07T07:32:48;2.90;82.50
70947;DHT22;58605;48.700;8.760;2023-03-07T07:35:16;2.80;83.10
70947;DHT22;58605;48.700;8.760;2023-03-07T07:37:42;2.70;82.80
70947;DHT22;58605;48.700;8.760;2023-03-07T07:40:09;2.80;83.10
70947;DHT22;58605;48.700;8.760;2023-03-07T07:42:36;2.80;83.00
70947;DHT22;58605;48.700;8.760;2023-03-07T07:45:02;2.80;82.90
70947;DHT22;58605;48.700;8.760;2023-03-07T07:47:28;2.80;82.90
70947;DHT22;58605;48.700;8.760;2023-03-07T07:49:54;2.80;83.00
70947;DHT22;58605;48.700;8.760;2023-03-07T07:52:22;2.80;82.90
70947;DHT22;58605;48.700;8.760;2023-03-07T07:54:48;2.70;82.90
70947;DHT22;58605;48.700;8.760;2023-03-07T07:57:14;2.70;83.20
70947;DHT22;58605;48.700;8.760;2023-03-07T07:59:39;2.70;83.30
70947;DHT22;58605;48.700;8.760;2023-03-07T08:02:06;2.70;83.60
70947;DHT22;58605;48.700;8.760;2023-03-07T08:04:32;2.60;83.80
70947;DHT22;58605;48.700;8.760;2023-03-07T08:06:58;2.60;84.20
70947;DHT22;58605;48.700;8.760;2023-03-07T08:09:25;2.50;84.20
70947;DHT22;58605;48.700;8.760;2023-03-07T08:11:51;2.50;84.50
70947;DHT22;58605;48.700;8.760;2023-03-07T08:14:17;2.60;84.60
70947;DHT22;58605;48.700;8.760;2023-03-07T08:16:43;2.60;84.40
70947;DHT22;58605;48.700;8.760;2023-03-07T08:19:09;2.60;84.50
70947;DHT22;58605;48.700;8.760;2023-03-07T08:21:35;2.50;84.90
70947;DHT22;58605;48.700;8.760;2023-03-07T08:24:01;2.60;84.40
70947;DHT22;58605;48.700;8.760;2023-03-07T08:26:30;2.70;84.10
70947;DHT22;58605;48.700;8.760;2023-03-07T08:28:57;2.80;83.30
70947;DHT22;58605;48.700;8.760;2023-03-07T08:31:23;2.80;83.20
70947;DHT22;58605;48.700;8.760;2023-03-07T08:33:50;2.80;83.40
70947;DHT22;58605;48.700;8.760;2023-03-07T08:36:17;2.80;83.00
70947;DHT22;58605;48.700;8.760;2023-03-07T08:38:47;2.80;83.40
70947;DHT22;58605;48.700;8.760;2023-03-07T08:41:15;2.70;83.40
70947;DHT22;58605;48.700;8.760;2023-03-07T08:43:43;2.70;83.80
70947;DHT22;58605;48.700;8.760;2023-03-07T08:46:09;2.70;83.70
70947;DHT22;58605;48.700;8.760;2023-03-07T08:48:35;2.60;84.30
70947;DHT22;58605;48.700;8.760;2023-03-07T08:51:06;2.60;84.00
70947;DHT22;58605;48.700;8.760;2023-03-07T08:53:32;2.50;83.90
70947;DHT22;58605;48.700;8.760;2023-03-07T08:55:59;2.60;84.40
70947;DHT22;58605;48.700;8.760;2023-03-07T08:58:25;2.60;83.60
70947;DHT22;58605;48.700;8.760;2023-03-07T09:00:52;2.60;83.60
70947;DHT22;58605;48.700;8.760;2023-03-07T09:03:18;2.60;83.50
70947;DHT22;58605;48.700;8.760;2023-03-07T09:05:44;2.60;83.80
70947;DHT22;58605;48.700;8.760;2023-03-07T09:08:10;2.60;83.70
70947;DHT22;58605;48.700;8.760;2023-03-07T09:10:36;2.50;83.80
70947;DHT22;58605;48.700;8.760;2023-03-07T09:13:02;2.50;83.50
70947;DHT22;58605;48.700;8.760;2023-03-07T09:15:28;2.50;83.00
70947;DHT22;58605;48.700;8.760;2023-03-07T09:17:56;2.50;82.90
70947;DHT22;58605;48.700;8.760;2023-03-07T09:20:22;2.50;82.90
70947;DHT22;58605;48.700;8.760;2023-03-07T09:22:48;2.50;82.20
70947;DHT22;58605;48.700;8.760;2023-03-07T09:25:16;2.50;82.80
70947;DHT22;58605;48.700;8.760;2023-03-07T09:27:42;2.50;82.40
70947;DHT22;58605;48.700;8.760;2023-03-07T09:30:11;2.50;82.50
70947;DHT22;58605;48.700;8.760;2023-03-07T09:32:37;2.50;81.90
70947;DHT22;58605;48.700;8.760;2023-03-07T09:35:06;2.60;82.00
70947;DHT22;58605;48.700;8.760;2023-03-07T09:37:32;2.60;82.20
70947;DHT22;58605;48.700;8.760;2023-03-07T09:39:58;2.60;81.90
70947;DHT22;58605;48.700;8.760;2023-03-07T09:42:28;2.60;82.00
70947;DHT22;58605;48.700;8.760;2023-03-07T09:45:23;2.50;82.30
70947;DHT22;58605;48.700;8.760;2023-03-07T09:51:00;2.50;81.80
70947;DHT22;58605;48.700;8.760;2023-03-07T09:53:34;2.40;81.30
70947;DHT22;58605;48.700;8.760;2023-03-07T09:56:03;2.40;81.30
70947;DHT22;58605;48.700;8.760;2023-03-07T09:58:30;2.50;81.60
70947;DHT22;58605;48.700;8.760;2023-03-07T10:00:58;2.50;81.70
70947;DHT22;58605;48.700;8.760;2023-03-07T10:03:36;2.50;81.40
70947;DHT22;58605;48.700;8.760;2023-03-07T10:06:12;2.40;80.60
70947;DHT22;58605;48.700;8.760;2023-03-07T10:08:39;2.40;80.60
70947;DHT22;58605;48.700;8.760;2023-03-07T10:11:16;2.40;80.70
70947;DHT22;58605;48.700;8.760;2023-03-07T10:14:07;2.50;80.60
70947;DHT22;58605;48.700;8.760;2023-03-07T10:16:41;2.50;81.20
70947;DHT22;58605;48.700;8.760;2023-03-07T10:19:15;2.50;81.30
70947;DHT22;58605;48.700;8.760;2023-03-07T10:21:51;2.60;80.40
70947;DHT22;58605;48.700;8.760;2023-03-07T10:24:41;2.60;80.20
70947;DHT22;58605;48.700;8.760;2023-03-07T10:27:13;2.50;80.70
70947;DHT22;58605;48.700;8.760;2023-03-07T10:29:45;2.60;80.50
70947;DHT22;58605;48.700;8.760;2023-03-07T10:32:22;2.50;80.70
70947;DHT22;58605;48.700;8.760;2023-03-07T10:34:55;2.60;80.40
70947;DHT22;58605;48.700;8.760;2023-03-07T10:37:34;2.50;80.40
70947;DHT22;58605;48.700;8.760;2023-03-07T10:40:07;2.40;80.10
70947;DHT22;58605;48.700;8.760;2023-03-07T10:42:39;2.40;79.50
70947;DHT22;58605;48.700;8.760;2023-03-07T10:45:11;2.60;79.00
70947;DHT22;58605;48.700;8.760;2023-03-07T10:47:37;2.60;78.50
70947;DHT22;58605;48.700;8.760;2023-03-07T10:50:19;2.70;78.30
70947;DHT22;58605;48.700;8.760;2023-03-07T10:52:51;2.60;78.80
70947;DHT22;58605;48.700;8.760;2023-03-07T10:55:38;2.50;79.60
70947;DHT22;58605;48.700;8.760;2023-03-07T10:58:22;2.60;79.10
70947;DHT22;58605;48.700;8.760;2023-03-07T11:01:12;2.60;79.20
70947;DHT22;58605;48.700;8.760;2023-03-07T11:03:42;2.60;79.60
70947;DHT22;58605;48.700;8.760;2023-03-07T11:06:25;2.60;78.70
70947;DHT22;58605;48.700;8.760;2023-03-07T11:08:53;2.60;78.70
70947;DHT22;58605;48.700;8.760;2023-03-07T11:11:23;2.70;77.50
70947;DHT22;58605;48.700;8.760;2023-03-07T11:14:04;2.60;78.20
70947;DHT22;58605;48.700;8.760;2023-03-07T11:16:31;2.60;77.10
70947;DHT22;58605;48.700;8.760;2023-03-07T11:18:57;2.70;77.20
70947;DHT22;58605;48.700;8.760;2023-03-07T11:21:28;2.60;77.50
70947;DHT22;58605;48.700;8.760;2023-03-07T11:24:00;2.60;77.80
70947;DHT22;58605;48.700;8.760;2023-03-07T11:26:30;2.70;77.60
70947;DHT22;58605;48.700;8.760;2023-03-07T11:29:04;2.80;76.50
70947;DHT22;58605;48.700;8.760;2023-03-07T11:31:36;2.70;77.10
70947;DHT22;58605;48.700;8.760;2023-03-07T11:34:15;2.70;78.10
70947;DHT22;58605;48.700;8.760;2023-03-07T11:36:53;2.70;77.60
70947;DHT22;58605;48.700;8.760;2023-03-07T11:39:30;2.70;77.20
70947;DHT22;58605;48.700;8.760;2023-03-07T11:41:59;2.70;77.90
70947;DHT22;58605;48.700;8.760;2023-03-07T11:44:33;2.70;77.50
70947;DHT22;58605;48.700;8.760;2023-03-07T11:50:14;2.60;78.90
70947;DHT22;58605;48.700;8.760;2023-03-07T11:53:23;2.60;77.80
70947;DHT22;58605;48.700;8.760;2023-03-07T11:56:03;2.50;78.80
70947;DHT22;58605;48.700;8.760;2023-03-07T11:58:42;2.60;78.20
70947;DHT22;58605;48.700;8.760;2023-03-07T12:01:17;2.90;75.80
70947;DHT22;58605;48.700;8.760;2023-03-07T12:06:54;2.60;77.60
70947;DHT22;58605;48.700;8.760;2023-03-07T12:09:32;2.70;77.40
70947;DHT22;58605;48.700;8.760;2023-03-07T12:12:19;2.60;77.50
70947;DHT22;58605;48.700;8.760;2023-03-07T12:14:54;2.70;77.60
70947;DHT22;58605;48.700;8.760;2023-03-07T12:17:29;2.80;77.00
70947;DHT22;58605;48.700;8.760;2023-03-07T12:20:27;2.90;76.90
70947;DHT22;58605;48.700;8.760;2023-03-07T12:23:13;2.90;77.50
70947;DHT22;58605;48.700;8.760;2023-03-07T12:25:42;3.10;76.10
70947;DHT22;58605;48.700;8.760;2023-03-07T12:28:18;2.90;76.80
70947;DHT22;58605;48.700;8.760;2023-03-07T12:31:04;3.20;75.90
70947;DHT22;58605;48.700;8.760;2023-03-07T12:33:49;2.90;77.00
70947;DHT22;58605;48.700;8.760;2023-03-07T12:36:23;3.00;76.80
70947;DHT22;58605;48.700;8.760;2023-03-07T12:38:55;3.00;76.40
70947;DHT22;58605;48.700;8.760;2023-03-07T12:41:37;3.10;75.80
70947;DHT22;58605;48.700;8.760;2023-03-07T12:44:12;3.00;76.60
70947;DHT22;58605;48.700;8.760;2023-03-07T12:46:45;3.00;76.90
70947;DHT22;58605;48.700;8.760;2023-03-07T12:49:18;3.10;76.40
70947;DHT22;58605;48.700;8.760;2023-03-07T12:51:55;3.10;76.10
70947;DHT22;58605;48.700;8.760;2023-03-07T12:54:26;3.10;76.60
70947;DHT22;58605;48.700;8.760;2023-03-07T12:56:54;3.10;76.30
70947;DHT22;58605;48.700;8.760;2023-03-07T12:59:26;3.00;76.50
70947;DHT22;58605;48.700;8.760;2023-03-07T13:01:57;3.10;76.80
70947;DHT22;58605;48.700;8.760;2023-03-07T13:04:28;3.10;76.70
70947;DHT22;58605;48.700;8.760;2023-03-07T13:06:59;3.00;76.90
70947;DHT22;58605;48.700;8.760;2023-03-07T13:09:26;3.10;76.30
70947;DHT22;58605;48.700;8.760;2023-03-07T13:12:22;3.10;76.50
70947;DHT22;58605;48.700;8.760;2023-03-07T13:14:51;3.00;76.60
70947;DHT22;58605;48.700;8.760;2023-03-07T13:20:37;3.00;78.00
70947;DHT22;58605;48.700;8.760;2023-03-07T13:23:26;3.00;77.30
70947;DHT22;58605;48.700;8.760;2023-03-07T13:26:04;3.00;77.70
70947;DHT22;58605;48.700;8.760;2023-03-07T13:28:48;3.00;77.10
70947;DHT22;58605;48.700;8.760;2023-03-07T13:31:38;3.00;76.60
70947;DHT22;58605;48.700;8.760;2023-03-07T13:37:48;3.00;76.80
70947;DHT22;58605;48.700;8.760;2023-03-07T13:43:33;3.10;76.70
70947;DHT22;58605;48.700;8.760;2023-03-07T13:46:00;3.20;76.10
70947;DHT22;58605;48.700;8.760;2023-03-07T13:48:59;3.40;76.20
70947;DHT22;58605;48.700;8.760;2023-03-07T13:51:25;3.30;75.50
70947;DHT22;58605;48.700;8.760;2023-03-07T13:53:54;3.30;76.10
70947;DHT22;58605;48.700;8.760;2023-03-07T13:56:23;3.40;75.70
70947;DHT22;58605;48.700;8.760;2023-03-07T13:58:54;3.50;75.10
70947;DHT22;58605;48.700;8.760;2023-03-07T14:01:23;3.50;75.30
70947;DHT22;58605;48.700;8.760;2023-03-07T14:03:53;3.50;75.40
70947;DHT22;58605;48.700;8.760;2023-03-07T14:06:26;3.50;75.20
70947;DHT22;58605;48.700;8.760;2023-03-07T14:08:57;3.60;75.00
70947;DHT22;58605;48.700;8.760;2023-03-07T14:11:29;3.70;73.90
70947;DHT22;58605;48.700;8.760;2023-03-07T14:14:27;3.80;73.40
70947;DHT22;58605;48.700;8.760;2023-03-07T14:17:05;3.80;73.00
70947;DHT22;58605;48.700;8.760;2023-03-07T14:19:47;3.50;74.70
70947;DHT22;58605;48.700;8.760;2023-03-07T14:22:26;3.60;75.00
70947;DHT22;58605;48.700;8.760;2023-03-07T14:25:12;3.60;74.70
70947;DHT22;58605;48.700;8.760;2023-03-07T14:27:51;3.50;75.20
70947;DHT22;58605;48.700;8.760;2023-03-07T14:30:19;3.40;76.00
70947;DHT22;58605;48.700;8.760;2023-03-07T14:32:45;3.60;74.60
70947;DHT22;58605;48.700;8.760;2023-03-07T14:35:11;3.60;75.00
70947;DHT22;58605;48.700;8.760;2023-03-07T14:37:42;3.50;75.30
70947;DHT22;58605;48.700;8.760;2023-03-07T14:40:20;3.50;75.50
70947;DHT22;58605;48.700;8.760;2023-03-07T14:42:55;3.40;75.50
70947;DHT22;58605;48.700;8.760;2023-03-07T14:45:30;3.40;75.90
70947;DHT22;58605;48.700;8.760;2023-03-07T14:48:11;3.70;73.40
70947;DHT22;58605;48.700;8.760;2023-03-07T14:50:42;3.70;74.00
70947;DHT22;58605;48.700;8.760;2023-03-07T14:53:15;3.60;74.40
70947;DHT22;58605;48.700;8.760;2023-03-07T14:55:44;3.60;74.70
70947;DHT22;58605;48.700;8.760;2023-03-07T14:58:15;3.60;74.30
70947;DHT22;58605;48.700;8.760;2023-03-07T15:00:42;3.50;75.10
70947;DHT22;58605;48.700;8.760;2023-03-07T15:03:10;3.50;74.60
70947;DHT22;58605;48.700;8.760;2023-03-07T15:05:46;3.40;74.90
70947;DHT22;58605;48.700;8.760;2023-03-07T15:08:18;3.50;74.80
70947;DHT22;58605;48.700;8.760;2023-03-07T15:10:46;3.50;75.00
70947;DHT22;58605;48.700;8.760;2023-03-07T15:13:19;3.60;74.70
70947;DHT22;58605;48.700;8.760;2023-03-07T15:15:49;3.50;75.10
70947;DHT22;58605;48.700;8.760;2023-03-07T15:18:20;3.40;75.50
70947;DHT22;58605;48.700;8.760;2023-03-07T15:20:47;3.40;75.60
70947;DHT22;58605;48.700;8.760;2023-03-07T15:23:20;3.40;75.70
70947;DHT22;58605;48.700;8.760;2023-03-07T15:25:47;3.50;75.00
70947;DHT22;58605;48.700;8.760;2023-03-07T15:28:17;3.70;74.10
70947;DHT22;58605;48.700;8.760;2023-03-07T15:30:46;3.70;73.70
70947;DHT22;58605;48.700;8.760;2023-03-07T15:33:23;3.80;74.00
70947;DHT22;58605;48.700;8.760;2023-03-07T15:36:17;3.80;73.70
70947;DHT22;58605;48.700;8.760;2023-03-07T15:38:46;3.80;74.00
70947;DHT22;58605;48.700;8.760;2023-03-07T15:41:27;3.60;75.00
70947;DHT22;58605;48.700;8.760;2023-03-07T15:44:16;3.70;74.20
70947;DHT22;58605;48.700;8.760;2023-03-07T15:46:45;3.70;73.90
70947;DHT22;58605;48.700;8.760;2023-03-07T15:49:21;3.60;75.20
70947;DHT22;58605;48.700;8.760;2023-03-07T15:51:50;3.50;76.20
70947;DHT22;58605;48.700;8.760;2023-03-07T15:54:28;3.40;76.30
70947;DHT22;58605;48.700;8.760;2023-03-07T15:56:56;3.50;74.70
70947;DHT22;58605;48.700;8.760;2023-03-07T15:59:27;3.50;75.30
70947;DHT22;58605;48.700;8.760;2023-03-07T16:01:53;3.50;75.70
70947;DHT22;58605;48.700;8.760;2023-03-07T16:04:30;3.40;76.20
70947;DHT22;58605;48.700;8.760;2023-03-07T16:07:00;3.40;76.20
70947;DHT22;58605;48.700;8.760;2023-03-07T16:09:28;3.40;77.30
70947;DHT22;58605;48.700;8.760;2023-03-07T16:11:54;3.40;75.70
70947;DHT22;58605;48.700;8.760;2023-03-07T16:14:21;3.50;75.60
70947;DHT22;58605;48.700;8.760;2023-03-07T16:16:50;3.50;75.90
70947;DHT22;58605;48.700;8.760;2023-03-07T16:19:17;3.50;76.10
70947;DHT22;58605;48.700;8.760;2023-03-07T16:21:43;3.50;75.80